Etusivu
METAR-TAF:

METAR-TAF

Lentoasemat :

Honningsvåg, Norja

Leveyspiiri: 71-01N, Pituuspiiri: 025-59E, korkeus merenpinnasta: 1 m

Tämänhetkinen sää

Tämä raportti tehtiin 27 minuuttia sitten, kello 17.20 UTC
Tuuli 25 kn luoteesta puuskistuen 35 kn:hen
Lämpötila 5°C
Kosteus 81%
Ilmanpaine 1015 hPa
Näkyvyys 10 km tai enemmän
Muutamia pilviä 1500 ft:n korkeudessa
Hajanaisia pilviä 2500 ft:n korkeudessa
Hajonneita pilviä 4000 ft:n korkeudessa
heikkoa sadetta

METAR: ENHV 211720Z 31025G35KT 9999 -RA FEW015 SCT025 BKN040 05/02 Q1015

Aika: 18:47 (17:47 UTC)


TAF: puuttuu

Säähavainnot ja -ennusteet yli 4000 lentoasemalta (METAR- ja TAF-raportit).

Käytössä olevat sääasemat on merkitty karttaan keltaisilla ja punaisilla pisteillä.

Aseta hiiri pisteen päälle nähdäksesi sääaseman nimen.

Klikkaa sitten nähdäksesi säähavainnot ja -ennusteet.

Kartan vaihtaminen: klikkaa mustalla rastilla varustettuja vihreitä pisteitä, niin voit zoomata sisään; viivalla varustettua vihreää pistettä, niin voit zoomata ulos tai vihreitä nuolia, niin pääset viereisille kartoille.


METAR-TAF: